Huvudsida
METAR-TAF:

METAR-TAF

Flygplatser :

Norrköping flygplats

Norrköping, Sverige

latitud: 58-35N, longitud: 016-09E, höjd: 34 m

Aktuellt väderrapport

Denna rapport gjordes för 36 minuter sedan, klockan 22:20 UTC
Vind 5 kt från syd/sydost
Temperatur 2°C
Fuktighet 100%
Tryck 1009 hPa
Sikt 10 km eller mer

METAR: ESSP 112220Z AUTO 15005KT 9999 NCD 02/02 Q1009

Tid: 23:56 (22:56 UTC)

Väderprognos

Denna rapport gjordes för 5 timmar och 26 minuter sedan, klockan 17:30 UTC
Prognos gäller från 11 kl. 18 UTC till 11 kl. 22 UTC
Vind 5 kt från syd
Sikt 10 km eller mer
Få moln på en höjd av 800 ft
Spridda moln på en höjd av 4500 ft

TAF: ESSP 111730Z 1118/1122 17005KT 9999 FEW008 SCT045

Aktuella väderrapporter och prognoser från 4000 flygplatser (METAR- och TAF-rapporter).

De tillgängliga stationerna syns som gula och röda prickar på kartan.

För musen över prickarna för att se namnen på stationerna.

Klicka sedan för att få väderrapporter och prognoser.

För att ändra kartan: Klicka på de gröna knapparna med ett svart kors på för att zooma in; den gröna knappen med ett streck på för att zooma ut; eller på de gröna pilarna för angränsande kartor.


METAR-TAF: